sensor_id;sensor_type;location;lat;lon;timestamp;temperature;humidity
15156;DHT22;7678;50.058;8.306;2024-03-06T00:01:22;4.50;99.90
15156;DHT22;7678;50.058;8.306;2024-03-06T00:03:50;4.30;99.90
15156;DHT22;7678;50.058;8.306;2024-03-06T00:06:21;4.40;99.90
15156;DHT22;7678;50.058;8.306;2024-03-06T00:08:49;4.40;99.90
15156;DHT22;7678;50.058;8.306;2024-03-06T00:11:17;4.40;99.90
15156;DHT22;7678;50.058;8.306;2024-03-06T00:13:46;4.50;99.90
15156;DHT22;7678;50.058;8.306;2024-03-06T00:16:15;4.40;99.90
15156;DHT22;7678;50.058;8.306;2024-03-06T00:18:46;4.30;99.90
15156;DHT22;7678;50.058;8.306;2024-03-06T00:21:15;4.30;99.90
15156;DHT22;7678;50.058;8.306;2024-03-06T00:23:45;4.40;99.90
15156;DHT22;7678;50.058;8.306;2024-03-06T00:26:14;4.30;99.90
15156;DHT22;7678;50.058;8.306;2024-03-06T00:28:42;4.20;99.90
15156;DHT22;7678;50.058;8.306;2024-03-06T00:31:11;4.20;99.90
15156;DHT22;7678;50.058;8.306;2024-03-06T00:33:40;4.20;99.90
15156;DHT22;7678;50.058;8.306;2024-03-06T00:36:09;4.20;99.90
15156;DHT22;7678;50.058;8.306;2024-03-06T00:38:38;4.20;99.90
15156;DHT22;7678;50.058;8.306;2024-03-06T00:41:07;4.10;99.90
15156;DHT22;7678;50.058;8.306;2024-03-06T00:43:36;4.30;99.90
15156;DHT22;7678;50.058;8.306;2024-03-06T00:46:06;4.30;99.90
15156;DHT22;7678;50.058;8.306;2024-03-06T00:48:34;4.20;99.90
15156;DHT22;7678;50.058;8.306;2024-03-06T00:51:07;4.20;99.90
15156;DHT22;7678;50.058;8.306;2024-03-06T00:53:35;4.10;99.90
15156;DHT22;7678;50.058;8.306;2024-03-06T00:56:07;4.10;99.90
15156;DHT22;7678;50.058;8.306;2024-03-06T00:58:35;4.20;99.90
15156;DHT22;7678;50.058;8.306;2024-03-06T01:01:04;4.10;99.90
15156;DHT22;7678;50.058;8.306;2024-03-06T01:03:32;4.20;99.90
15156;DHT22;7678;50.058;8.306;2024-03-06T01:06:01;4.30;99.90
15156;DHT22;7678;50.058;8.306;2024-03-06T01:08:29;4.10;99.90
15156;DHT22;7678;50.058;8.306;2024-03-06T01:10:58;4.00;99.90
15156;DHT22;7678;50.058;8.306;2024-03-06T01:13:28;4.00;99.90
15156;DHT22;7678;50.058;8.306;2024-03-06T01:15:56;3.90;99.90
15156;DHT22;7678;50.058;8.306;2024-03-06T01:18:25;3.90;99.90
15156;DHT22;7678;50.058;8.306;2024-03-06T01:20:54;3.80;99.90
15156;DHT22;7678;50.058;8.306;2024-03-06T01:23:22;3.80;99.90
15156;DHT22;7678;50.058;8.306;2024-03-06T01:25:50;3.80;99.90
15156;DHT22;7678;50.058;8.306;2024-03-06T01:28:18;3.90;99.90
15156;DHT22;7678;50.058;8.306;2024-03-06T01:30:48;3.70;99.90
15156;DHT22;7678;50.058;8.306;2024-03-06T01:33:16;3.60;99.90
15156;DHT22;7678;50.058;8.306;2024-03-06T01:35:45;3.80;99.90
15156;DHT22;7678;50.058;8.306;2024-03-06T01:38:13;3.70;99.90
15156;DHT22;7678;50.058;8.306;2024-03-06T01:40:43;3.70;99.90
15156;DHT22;7678;50.058;8.306;2024-03-06T01:43:22;3.80;99.90
15156;DHT22;7678;50.058;8.306;2024-03-06T01:45:53;3.70;99.90
15156;DHT22;7678;50.058;8.306;2024-03-06T01:48:23;3.50;99.90
15156;DHT22;7678;50.058;8.306;2024-03-06T01:50:53;3.50;99.90
15156;DHT22;7678;50.058;8.306;2024-03-06T01:53:23;3.40;99.90
15156;DHT22;7678;50.058;8.306;2024-03-06T01:55:52;3.40;99.90
15156;DHT22;7678;50.058;8.306;2024-03-06T01:58:21;3.40;99.90
15156;DHT22;7678;50.058;8.306;2024-03-06T02:00:52;3.40;99.90
15156;DHT22;7678;50.058;8.306;2024-03-06T02:03:21;3.40;99.90
15156;DHT22;7678;50.058;8.306;2024-03-06T02:05:53;3.60;99.90
15156;DHT22;7678;50.058;8.306;2024-03-06T02:08:26;3.80;99.90
15156;DHT22;7678;50.058;8.306;2024-03-06T02:10:55;3.90;99.90
15156;DHT22;7678;50.058;8.306;2024-03-06T02:13:25;4.00;99.90
15156;DHT22;7678;50.058;8.306;2024-03-06T02:15:55;4.00;99.90
15156;DHT22;7678;50.058;8.306;2024-03-06T02:18:24;4.00;99.90
15156;DHT22;7678;50.058;8.306;2024-03-06T02:20:54;3.90;99.90
15156;DHT22;7678;50.058;8.306;2024-03-06T02:23:22;3.90;99.90
15156;DHT22;7678;50.058;8.306;2024-03-06T02:25:50;3.60;99.90
15156;DHT22;7678;50.058;8.306;2024-03-06T02:28:19;3.60;99.90
15156;DHT22;7678;50.058;8.306;2024-03-06T02:30:50;3.70;99.90
15156;DHT22;7678;50.058;8.306;2024-03-06T02:33:19;3.70;99.90
15156;DHT22;7678;50.058;8.306;2024-03-06T02:35:47;3.70;99.90
15156;DHT22;7678;50.058;8.306;2024-03-06T02:38:17;3.60;99.90
15156;DHT22;7678;50.058;8.306;2024-03-06T02:40:46;3.60;99.90
15156;DHT22;7678;50.058;8.306;2024-03-06T02:43:15;3.60;99.90
15156;DHT22;7678;50.058;8.306;2024-03-06T02:45:43;3.50;99.90
15156;DHT22;7678;50.058;8.306;2024-03-06T02:48:12;3.50;99.90
15156;DHT22;7678;50.058;8.306;2024-03-06T02:50:40;3.50;99.90
15156;DHT22;7678;50.058;8.306;2024-03-06T02:53:08;3.30;99.90
15156;DHT22;7678;50.058;8.306;2024-03-06T02:55:44;3.20;99.90
15156;DHT22;7678;50.058;8.306;2024-03-06T02:58:12;3.30;99.90
15156;DHT22;7678;50.058;8.306;2024-03-06T03:00:41;3.40;99.90
15156;DHT22;7678;50.058;8.306;2024-03-06T03:03:09;3.40;99.90
15156;DHT22;7678;50.058;8.306;2024-03-06T03:05:40;3.20;99.90
15156;DHT22;7678;50.058;8.306;2024-03-06T03:08:08;3.30;99.90
15156;DHT22;7678;50.058;8.306;2024-03-06T03:10:38;3.20;99.90
15156;DHT22;7678;50.058;8.306;2024-03-06T03:13:07;3.10;99.90
15156;DHT22;7678;50.058;8.306;2024-03-06T03:15:38;3.20;99.90
15156;DHT22;7678;50.058;8.306;2024-03-06T03:18:08;3.20;99.90
15156;DHT22;7678;50.058;8.306;2024-03-06T03:20:36;3.20;99.90
15156;DHT22;7678;50.058;8.306;2024-03-06T03:23:05;3.20;99.90
15156;DHT22;7678;50.058;8.306;2024-03-06T03:25:40;3.20;99.90
15156;DHT22;7678;50.058;8.306;2024-03-06T03:28:08;3.20;99.90
15156;DHT22;7678;50.058;8.306;2024-03-06T03:30:37;3.10;99.90
15156;DHT22;7678;50.058;8.306;2024-03-06T03:33:05;2.90;99.90
15156;DHT22;7678;50.058;8.306;2024-03-06T03:35:34;2.80;99.90
15156;DHT22;7678;50.058;8.306;2024-03-06T03:38:02;2.80;99.90
15156;DHT22;7678;50.058;8.306;2024-03-06T03:40:31;2.70;99.90
15156;DHT22;7678;50.058;8.306;2024-03-06T03:43:01;2.70;99.90
15156;DHT22;7678;50.058;8.306;2024-03-06T03:45:33;2.70;99.90
15156;DHT22;7678;50.058;8.306;2024-03-06T03:48:03;2.80;99.90
15156;DHT22;7678;50.058;8.306;2024-03-06T03:50:32;2.80;99.90
15156;DHT22;7678;50.058;8.306;2024-03-06T03:53:00;2.80;99.90
15156;DHT22;7678;50.058;8.306;2024-03-06T03:55:29;3.00;99.90
15156;DHT22;7678;50.058;8.306;2024-03-06T03:57:57;2.90;99.90
15156;DHT22;7678;50.058;8.306;2024-03-06T04:00:27;3.10;99.90
15156;DHT22;7678;50.058;8.306;2024-03-06T04:02:55;3.00;99.90
15156;DHT22;7678;50.058;8.306;2024-03-06T04:05:23;2.90;99.90
15156;DHT22;7678;50.058;8.306;2024-03-06T04:07:52;3.00;99.90
15156;DHT22;7678;50.058;8.306;2024-03-06T04:10:21;2.90;99.90
15156;DHT22;7678;50.058;8.306;2024-03-06T04:12:49;2.80;99.90
15156;DHT22;7678;50.058;8.306;2024-03-06T04:15:18;2.80;99.90
15156;DHT22;7678;50.058;8.306;2024-03-06T04:17:47;3.00;99.90
15156;DHT22;7678;50.058;8.306;2024-03-06T04:20:16;3.20;99.90
15156;DHT22;7678;50.058;8.306;2024-03-06T04:22:45;3.40;99.90
15156;DHT22;7678;50.058;8.306;2024-03-06T04:25:15;3.50;99.90
15156;DHT22;7678;50.058;8.306;2024-03-06T04:27:43;3.50;99.90
15156;DHT22;7678;50.058;8.306;2024-03-06T04:30:12;3.50;99.90
15156;DHT22;7678;50.058;8.306;2024-03-06T04:32:41;3.50;99.90
15156;DHT22;7678;50.058;8.306;2024-03-06T04:35:11;3.50;99.90
15156;DHT22;7678;50.058;8.306;2024-03-06T04:37:40;3.50;99.90
15156;DHT22;7678;50.058;8.306;2024-03-06T04:40:09;3.40;99.90
15156;DHT22;7678;50.058;8.306;2024-03-06T04:42:37;3.40;99.90
15156;DHT22;7678;50.058;8.306;2024-03-06T04:45:11;3.30;99.90
15156;DHT22;7678;50.058;8.306;2024-03-06T04:47:39;3.20;99.90
15156;DHT22;7678;50.058;8.306;2024-03-06T04:50:11;3.10;99.90
15156;DHT22;7678;50.058;8.306;2024-03-06T04:52:39;3.20;99.90
15156;DHT22;7678;50.058;8.306;2024-03-06T04:55:08;3.10;99.90
15156;DHT22;7678;50.058;8.306;2024-03-06T04:57:44;3.20;99.90
15156;DHT22;7678;50.058;8.306;2024-03-06T05:00:13;3.30;99.90
15156;DHT22;7678;50.058;8.306;2024-03-06T05:02:42;3.30;99.90
15156;DHT22;7678;50.058;8.306;2024-03-06T05:05:29;3.30;99.90
15156;DHT22;7678;50.058;8.306;2024-03-06T05:08:15;3.30;99.90
15156;DHT22;7678;50.058;8.306;2024-03-06T05:11:01;3.30;99.90
15156;DHT22;7678;50.058;8.306;2024-03-06T05:13:57;3.40;99.90
15156;DHT22;7678;50.058;8.306;2024-03-06T05:16:43;3.40;99.90
15156;DHT22;7678;50.058;8.306;2024-03-06T05:19:29;3.50;99.90
15156;DHT22;7678;50.058;8.306;2024-03-06T05:22:17;3.40;99.90
15156;DHT22;7678;50.058;8.306;2024-03-06T05:25:03;3.40;99.90
15156;DHT22;7678;50.058;8.306;2024-03-06T05:27:51;3.40;99.90
15156;DHT22;7678;50.058;8.306;2024-03-06T05:30:36;3.40;99.90
15156;DHT22;7678;50.058;8.306;2024-03-06T05:33:22;3.40;99.90
15156;DHT22;7678;50.058;8.306;2024-03-06T05:36:08;3.30;99.90
15156;DHT22;7678;50.058;8.306;2024-03-06T05:38:55;3.30;99.90
15156;DHT22;7678;50.058;8.306;2024-03-06T05:41:41;3.30;99.90
15156;DHT22;7678;50.058;8.306;2024-03-06T05:44:27;3.20;99.90
15156;DHT22;7678;50.058;8.306;2024-03-06T05:47:12;3.20;99.90
15156;DHT22;7678;50.058;8.306;2024-03-06T05:49:59;3.20;99.90
15156;DHT22;7678;50.058;8.306;2024-03-06T05:52:45;3.20;99.90
15156;DHT22;7678;50.058;8.306;2024-03-06T05:55:32;3.20;99.90
15156;DHT22;7678;50.058;8.306;2024-03-06T05:58:18;3.20;99.90
15156;DHT22;7678;50.058;8.306;2024-03-06T06:00:48;3.10;99.90
15156;DHT22;7678;50.058;8.306;2024-03-06T06:03:16;3.00;99.90
15156;DHT22;7678;50.058;8.306;2024-03-06T06:05:45;3.10;99.90
15156;DHT22;7678;50.058;8.306;2024-03-06T06:08:14;3.00;99.90
15156;DHT22;7678;50.058;8.306;2024-03-06T06:10:43;3.00;99.90
15156;DHT22;7678;50.058;8.306;2024-03-06T06:13:12;3.00;99.90
15156;DHT22;7678;50.058;8.306;2024-03-06T06:15:41;3.00;99.90
15156;DHT22;7678;50.058;8.306;2024-03-06T06:18:09;3.10;99.90
15156;DHT22;7678;50.058;8.306;2024-03-06T06:20:40;3.10;99.90
15156;DHT22;7678;50.058;8.306;2024-03-06T06:23:11;3.10;99.90
15156;DHT22;7678;50.058;8.306;2024-03-06T06:25:40;3.00;99.90
15156;DHT22;7678;50.058;8.306;2024-03-06T06:28:09;2.90;99.90
15156;DHT22;7678;50.058;8.306;2024-03-06T06:30:38;2.90;99.90
15156;DHT22;7678;50.058;8.306;2024-03-06T06:33:06;2.90;99.90
15156;DHT22;7678;50.058;8.306;2024-03-06T06:35:35;2.90;99.90
15156;DHT22;7678;50.058;8.306;2024-03-06T06:38:04;2.90;99.90
15156;DHT22;7678;50.058;8.306;2024-03-06T06:40:32;3.00;99.90
15156;DHT22;7678;50.058;8.306;2024-03-06T06:43:00;3.00;99.90
15156;DHT22;7678;50.058;8.306;2024-03-06T06:45:30;3.10;99.90
15156;DHT22;7678;50.058;8.306;2024-03-06T06:47:58;3.00;99.90
15156;DHT22;7678;50.058;8.306;2024-03-06T06:50:27;3.10;99.90
15156;DHT22;7678;50.058;8.306;2024-03-06T06:52:56;3.00;99.90
15156;DHT22;7678;50.058;8.306;2024-03-06T06:55:26;3.10;99.90
15156;DHT22;7678;50.058;8.306;2024-03-06T06:57:55;3.10;99.90
15156;DHT22;7678;50.058;8.306;2024-03-06T07:00:24;3.10;99.90
15156;DHT22;7678;50.058;8.306;2024-03-06T07:02:53;3.10;99.90
15156;DHT22;7678;50.058;8.306;2024-03-06T07:05:23;3.20;99.90
15156;DHT22;7678;50.058;8.306;2024-03-06T07:07:51;3.20;99.90
15156;DHT22;7678;50.058;8.306;2024-03-06T07:10:21;3.20;99.90
15156;DHT22;7678;50.058;8.306;2024-03-06T07:12:52;3.20;99.90
15156;DHT22;7678;50.058;8.306;2024-03-06T07:15:20;3.20;99.90
15156;DHT22;7678;50.058;8.306;2024-03-06T07:17:49;3.20;99.90
15156;DHT22;7678;50.058;8.306;2024-03-06T07:20:22;3.30;99.90
15156;DHT22;7678;50.058;8.306;2024-03-06T07:22:51;3.40;99.90
15156;DHT22;7678;50.058;8.306;2024-03-06T07:25:19;3.40;99.90
15156;DHT22;7678;50.058;8.306;2024-03-06T07:27:48;3.50;99.90
15156;DHT22;7678;50.058;8.306;2024-03-06T07:30:16;3.50;99.90
15156;DHT22;7678;50.058;8.306;2024-03-06T07:32:45;3.60;99.90
15156;DHT22;7678;50.058;8.306;2024-03-06T07:35:13;3.60;99.90
15156;DHT22;7678;50.058;8.306;2024-03-06T07:37:43;3.70;99.90
15156;DHT22;7678;50.058;8.306;2024-03-06T07:40:13;3.60;99.90
15156;DHT22;7678;50.058;8.306;2024-03-06T07:42:41;3.50;99.90
15156;DHT22;7678;50.058;8.306;2024-03-06T07:45:09;3.60;99.90
15156;DHT22;7678;50.058;8.306;2024-03-06T07:47:38;3.70;99.90
15156;DHT22;7678;50.058;8.306;2024-03-06T07:50:10;3.80;99.90
15156;DHT22;7678;50.058;8.306;2024-03-06T07:52:38;3.90;99.90
15156;DHT22;7678;50.058;8.306;2024-03-06T07:55:08;4.00;99.90
15156;DHT22;7678;50.058;8.306;2024-03-06T07:57:37;4.20;99.90
15156;DHT22;7678;50.058;8.306;2024-03-06T08:00:07;4.40;99.90
15156;DHT22;7678;50.058;8.306;2024-03-06T08:02:42;4.60;99.90
15156;DHT22;7678;50.058;8.306;2024-03-06T08:05:11;4.60;99.90
15156;DHT22;7678;50.058;8.306;2024-03-06T08:07:40;4.60;99.90
15156;DHT22;7678;50.058;8.306;2024-03-06T08:10:11;4.80;99.90
15156;DHT22;7678;50.058;8.306;2024-03-06T08:12:41;5.00;99.90
15156;DHT22;7678;50.058;8.306;2024-03-06T08:15:11;4.90;99.90
15156;DHT22;7678;50.058;8.306;2024-03-06T08:17:41;5.10;99.90
15156;DHT22;7678;50.058;8.306;2024-03-06T08:20:12;5.20;99.90
15156;DHT22;7678;50.058;8.306;2024-03-06T08:22:41;5.40;99.90
15156;DHT22;7678;50.058;8.306;2024-03-06T08:25:12;5.60;99.90
15156;DHT22;7678;50.058;8.306;2024-03-06T08:27:41;5.60;99.90
15156;DHT22;7678;50.058;8.306;2024-03-06T08:30:10;5.70;99.90
15156;DHT22;7678;50.058;8.306;2024-03-06T08:32:40;5.80;99.90
15156;DHT22;7678;50.058;8.306;2024-03-06T08:35:11;5.90;99.90
15156;DHT22;7678;50.058;8.306;2024-03-06T08:37:44;6.00;99.90
15156;DHT22;7678;50.058;8.306;2024-03-06T08:40:14;6.20;99.90
15156;DHT22;7678;50.058;8.306;2024-03-06T08:42:45;6.30;99.90
15156;DHT22;7678;50.058;8.306;2024-03-06T08:45:15;6.40;99.90
15156;DHT22;7678;50.058;8.306;2024-03-06T08:47:45;6.60;99.90
15156;DHT22;7678;50.058;8.306;2024-03-06T08:50:15;6.70;99.90
15156;DHT22;7678;50.058;8.306;2024-03-06T08:52:47;6.90;99.90
15156;DHT22;7678;50.058;8.306;2024-03-06T08:55:17;7.10;99.90
15156;DHT22;7678;50.058;8.306;2024-03-06T08:57:46;7.20;99.90
15156;DHT22;7678;50.058;8.306;2024-03-06T09:00:15;7.20;99.90
15156;DHT22;7678;50.058;8.306;2024-03-06T09:02:44;7.20;99.90
15156;DHT22;7678;50.058;8.306;2024-03-06T09:05:13;7.20;99.90
15156;DHT22;7678;50.058;8.306;2024-03-06T09:07:42;7.20;99.90
15156;DHT22;7678;50.058;8.306;2024-03-06T09:10:12;7.30;99.90
15156;DHT22;7678;50.058;8.306;2024-03-06T09:12:42;7.30;99.90
15156;DHT22;7678;50.058;8.306;2024-03-06T09:15:14;7.30;99.90
15156;DHT22;7678;50.058;8.306;2024-03-06T09:17:43;7.40;99.90
15156;DHT22;7678;50.058;8.306;2024-03-06T09:20:13;7.50;99.90
15156;DHT22;7678;50.058;8.306;2024-03-06T09:22:43;7.70;99.90
15156;DHT22;7678;50.058;8.306;2024-03-06T09:25:11;7.90;99.90
15156;DHT22;7678;50.058;8.306;2024-03-06T09:27:46;7.90;99.90
15156;DHT22;7678;50.058;8.306;2024-03-06T09:30:15;8.10;99.90
15156;DHT22;7678;50.058;8.306;2024-03-06T09:32:43;8.10;99.90
15156;DHT22;7678;50.058;8.306;2024-03-06T09:35:12;8.30;99.90
15156;DHT22;7678;50.058;8.306;2024-03-06T09:37:45;8.10;99.90
15156;DHT22;7678;50.058;8.306;2024-03-06T09:40:20;8.10;99.90
15156;DHT22;7678;50.058;8.306;2024-03-06T09:42:51;8.20;99.90
15156;DHT22;7678;50.058;8.306;2024-03-06T09:45:20;8.20;99.90
15156;DHT22;7678;50.058;8.306;2024-03-06T09:47:50;8.20;99.90
15156;DHT22;7678;50.058;8.306;2024-03-06T09:50:23;8.20;99.90
15156;DHT22;7678;50.058;8.306;2024-03-06T09:52:55;8.30;99.90
15156;DHT22;7678;50.058;8.306;2024-03-06T09:55:25;8.30;99.90
15156;DHT22;7678;50.058;8.306;2024-03-06T09:57:55;8.20;99.90
15156;DHT22;7678;50.058;8.306;2024-03-06T10:00:24;8.20;99.90
15156;DHT22;7678;50.058;8.306;2024-03-06T10:02:57;8.30;99.90
15156;DHT22;7678;50.058;8.306;2024-03-06T10:05:29;8.40;99.90
15156;DHT22;7678;50.058;8.306;2024-03-06T10:07:58;8.60;99.90
15156;DHT22;7678;50.058;8.306;2024-03-06T10:10:27;8.50;99.90
15156;DHT22;7678;50.058;8.306;2024-03-06T10:12:57;8.60;99.90
15156;DHT22;7678;50.058;8.306;2024-03-06T10:15:29;8.80;99.90
15156;DHT22;7678;50.058;8.306;2024-03-06T10:18:10;8.80;99.90
15156;DHT22;7678;50.058;8.306;2024-03-06T10:20:40;8.90;99.90
15156;DHT22;7678;50.058;8.306;2024-03-06T10:23:12;8.90;99.90
15156;DHT22;7678;50.058;8.306;2024-03-06T10:25:42;9.00;99.90
15156;DHT22;7678;50.058;8.306;2024-03-06T10:28:12;9.10;99.90
15156;DHT22;7678;50.058;8.306;2024-03-06T10:30:41;9.40;99.90
15156;DHT22;7678;50.058;8.306;2024-03-06T10:33:11;9.50;99.90
15156;DHT22;7678;50.058;8.306;2024-03-06T10:35:41;9.40;99.90
15156;DHT22;7678;50.058;8.306;2024-03-06T10:38:10;9.40;99.90
15156;DHT22;7678;50.058;8.306;2024-03-06T10:40:40;9.50;99.90
15156;DHT22;7678;50.058;8.306;2024-03-06T10:43:10;9.60;99.90
15156;DHT22;7678;50.058;8.306;2024-03-06T10:45:47;9.40;99.90
15156;DHT22;7678;50.058;8.306;2024-03-06T10:48:17;9.70;99.90
15156;DHT22;7678;50.058;8.306;2024-03-06T10:50:47;10.10;99.90
15156;DHT22;7678;50.058;8.306;2024-03-06T10:53:17;10.20;99.90
15156;DHT22;7678;50.058;8.306;2024-03-06T10:55:53;10.00;99.90
15156;DHT22;7678;50.058;8.306;2024-03-06T10:58:22;9.80;99.90
15156;DHT22;7678;50.058;8.306;2024-03-06T11:00:52;9.90;99.90
15156;DHT22;7678;50.058;8.306;2024-03-06T11:03:22;10.20;99.90
15156;DHT22;7678;50.058;8.306;2024-03-06T11:05:51;10.20;99.90
15156;DHT22;7678;50.058;8.306;2024-03-06T11:08:20;10.30;99.90
15156;DHT22;7678;50.058;8.306;2024-03-06T11:10:49;10.30;99.90
15156;DHT22;7678;50.058;8.306;2024-03-06T11:13:22;10.40;99.90
15156;DHT22;7678;50.058;8.306;2024-03-06T11:15:57;10.40;99.90
15156;DHT22;7678;50.058;8.306;2024-03-06T11:18:42;10.60;99.90
15156;DHT22;7678;50.058;8.306;2024-03-06T11:21:31;10.50;99.90
15156;DHT22;7678;50.058;8.306;2024-03-06T11:24:14;10.70;99.90
15156;DHT22;7678;50.058;8.306;2024-03-06T11:26:45;10.80;96.40
15156;DHT22;7678;50.058;8.306;2024-03-06T11:29:16;10.80;95.10
15156;DHT22;7678;50.058;8.306;2024-03-06T11:32:14;10.90;92.70
15156;DHT22;7678;50.058;8.306;2024-03-06T11:34:43;10.80;96.40
15156;DHT22;7678;50.058;8.306;2024-03-06T11:37:12;11.10;98.70
15156;DHT22;7678;50.058;8.306;2024-03-06T11:39:41;11.20;95.60
15156;DHT22;7678;50.058;8.306;2024-03-06T11:42:13;11.20;96.10
15156;DHT22;7678;50.058;8.306;2024-03-06T11:44:53;11.50;94.20
15156;DHT22;7678;50.058;8.306;2024-03-06T11:47:26;11.60;92.30
15156;DHT22;7678;50.058;8.306;2024-03-06T11:49:56;11.50;93.00
15156;DHT22;7678;50.058;8.306;2024-03-06T11:52:26;11.40;95.00
15156;DHT22;7678;50.058;8.306;2024-03-06T11:54:54;11.30;95.10
15156;DHT22;7678;50.058;8.306;2024-03-06T11:57:23;11.50;95.20
15156;DHT22;7678;50.058;8.306;2024-03-06T11:59:52;11.60;95.30
15156;DHT22;7678;50.058;8.306;2024-03-06T12:02:23;11.70;94.20
15156;DHT22;7678;50.058;8.306;2024-03-06T12:04:53;11.50;93.50
15156;DHT22;7678;50.058;8.306;2024-03-06T12:07:21;11.70;95.00
15156;DHT22;7678;50.058;8.306;2024-03-06T12:09:52;11.30;93.50
15156;DHT22;7678;50.058;8.306;2024-03-06T12:12:22;11.40;94.40
15156;DHT22;7678;50.058;8.306;2024-03-06T12:15:03;11.30;93.80
15156;DHT22;7678;50.058;8.306;2024-03-06T12:17:43;11.50;95.80
15156;DHT22;7678;50.058;8.306;2024-03-06T12:20:18;11.40;99.90
15156;DHT22;7678;50.058;8.306;2024-03-06T12:22:50;11.10;99.90
15156;DHT22;7678;50.058;8.306;2024-03-06T12:25:26;11.00;99.90
15156;DHT22;7678;50.058;8.306;2024-03-06T12:27:55;10.80;99.90
15156;DHT22;7678;50.058;8.306;2024-03-06T12:30:41;10.80;99.90
15156;DHT22;7678;50.058;8.306;2024-03-06T12:33:18;10.70;99.90
15156;DHT22;7678;50.058;8.306;2024-03-06T12:36:09;10.60;99.90
15156;DHT22;7678;50.058;8.306;2024-03-06T12:38:39;10.50;99.90
15156;DHT22;7678;50.058;8.306;2024-03-06T12:41:10;10.40;99.90
15156;DHT22;7678;50.058;8.306;2024-03-06T12:43:40;10.30;99.90
15156;DHT22;7678;50.058;8.306;2024-03-06T12:46:11;10.30;99.90
15156;DHT22;7678;50.058;8.306;2024-03-06T12:48:40;10.20;99.90
15156;DHT22;7678;50.058;8.306;2024-03-06T12:51:13;10.10;99.90
15156;DHT22;7678;50.058;8.306;2024-03-06T12:53:41;10.00;99.90
15156;DHT22;7678;50.058;8.306;2024-03-06T12:56:12;10.10;99.90
15156;DHT22;7678;50.058;8.306;2024-03-06T12:58:42;10.10;99.90
15156;DHT22;7678;50.058;8.306;2024-03-06T13:01:13;10.10;99.90
15156;DHT22;7678;50.058;8.306;2024-03-06T13:03:47;10.10;99.90
15156;DHT22;7678;50.058;8.306;2024-03-06T13:06:20;10.20;99.90
15156;DHT22;7678;50.058;8.306;2024-03-06T13:08:51;10.20;99.90
15156;DHT22;7678;50.058;8.306;2024-03-06T13:11:22;10.30;99.90
15156;DHT22;7678;50.058;8.306;2024-03-06T13:13:52;10.40;99.90
15156;DHT22;7678;50.058;8.306;2024-03-06T13:16:22;10.50;99.90
15156;DHT22;7678;50.058;8.306;2024-03-06T13:18:52;10.50;99.90
15156;DHT22;7678;50.058;8.306;2024-03-06T13:21:33;10.50;99.90
15156;DHT22;7678;50.058;8.306;2024-03-06T13:24:02;10.60;99.90
15156;DHT22;7678;50.058;8.306;2024-03-06T13:26:31;10.60;99.90
15156;DHT22;7678;50.058;8.306;2024-03-06T13:29:01;10.70;99.90
15156;DHT22;7678;50.058;8.306;2024-03-06T13:31:31;10.70;99.90
15156;DHT22;7678;50.058;8.306;2024-03-06T13:34:02;10.80;99.90
15156;DHT22;7678;50.058;8.306;2024-03-06T13:36:35;10.80;99.90
15156;DHT22;7678;50.058;8.306;2024-03-06T13:39:05;10.60;99.90
15156;DHT22;7678;50.058;8.306;2024-03-06T13:44:30;10.70;99.90
15156;DHT22;7678;50.058;8.306;2024-03-06T13:47:07;10.40;99.90
15156;DHT22;7678;50.058;8.306;2024-03-06T13:49:38;10.40;99.90
15156;DHT22;7678;50.058;8.306;2024-03-06T13:52:15;10.30;99.90
15156;DHT22;7678;50.058;8.306;2024-03-06T13:54:48;10.20;99.90
15156;DHT22;7678;50.058;8.306;2024-03-06T13:57:17;10.30;99.90
15156;DHT22;7678;50.058;8.306;2024-03-06T13:59:47;10.20;99.90
15156;DHT22;7678;50.058;8.306;2024-03-06T14:02:16;10.20;99.90
15156;DHT22;7678;50.058;8.306;2024-03-06T14:04:51;10.20;99.90
15156;DHT22;7678;50.058;8.306;2024-03-06T14:07:21;10.20;99.90
15156;DHT22;7678;50.058;8.306;2024-03-06T14:09:53;10.20;99.90
15156;DHT22;7678;50.058;8.306;2024-03-06T14:12:25;10.20;99.90
15156;DHT22;7678;50.058;8.306;2024-03-06T14:14:54;10.20;99.90
15156;DHT22;7678;50.058;8.306;2024-03-06T14:17:26;10.20;99.90
15156;DHT22;7678;50.058;8.306;2024-03-06T14:20:03;10.20;99.90
15156;DHT22;7678;50.058;8.306;2024-03-06T14:22:45;10.20;99.90
15156;DHT22;7678;50.058;8.306;2024-03-06T14:25:20;10.30;99.90
15156;DHT22;7678;50.058;8.306;2024-03-06T14:27:56;10.30;99.90
15156;DHT22;7678;50.058;8.306;2024-03-06T14:30:34;10.30;99.90
15156;DHT22;7678;50.058;8.306;2024-03-06T14:33:09;10.40;99.90
15156;DHT22;7678;50.058;8.306;2024-03-06T14:35:41;10.50;99.90
15156;DHT22;7678;50.058;8.306;2024-03-06T14:38:17;10.50;99.90
15156;DHT22;7678;50.058;8.306;2024-03-06T14:40:46;10.70;99.90
15156;DHT22;7678;50.058;8.306;2024-03-06T14:43:17;10.80;99.90
15156;DHT22;7678;50.058;8.306;2024-03-06T14:46:04;10.80;99.90
15156;DHT22;7678;50.058;8.306;2024-03-06T14:48:36;10.90;99.90
15156;DHT22;7678;50.058;8.306;2024-03-06T14:51:05;11.00;99.90
15156;DHT22;7678;50.058;8.306;2024-03-06T14:53:34;11.10;99.90
15156;DHT22;7678;50.058;8.306;2024-03-06T14:56:03;11.20;99.90
15156;DHT22;7678;50.058;8.306;2024-03-06T14:58:31;11.10;99.90
15156;DHT22;7678;50.058;8.306;2024-03-06T15:01:00;11.10;99.90
15156;DHT22;7678;50.058;8.306;2024-03-06T15:03:28;11.10;99.40
15156;DHT22;7678;50.058;8.306;2024-03-06T15:06:01;11.20;99.90
15156;DHT22;7678;50.058;8.306;2024-03-06T15:08:29;11.00;95.00
15156;DHT22;7678;50.058;8.306;2024-03-06T15:11:03;11.00;95.00
15156;DHT22;7678;50.058;8.306;2024-03-06T15:13:32;10.90;95.00
15156;DHT22;7678;50.058;8.306;2024-03-06T15:16:03;10.80;95.20
15156;DHT22;7678;50.058;8.306;2024-03-06T15:18:33;10.80;93.60
15156;DHT22;7678;50.058;8.306;2024-03-06T15:21:08;10.80;93.90
15156;DHT22;7678;50.058;8.306;2024-03-06T15:23:39;10.80;93.00
15156;DHT22;7678;50.058;8.306;2024-03-06T15:26:08;10.80;93.10
15156;DHT22;7678;50.058;8.306;2024-03-06T15:28:38;10.80;94.20
15156;DHT22;7678;50.058;8.306;2024-03-06T15:31:06;10.80;95.90
15156;DHT22;7678;50.058;8.306;2024-03-06T15:33:37;10.80;98.00
15156;DHT22;7678;50.058;8.306;2024-03-06T15:36:07;10.70;94.70
15156;DHT22;7678;50.058;8.306;2024-03-06T15:38:36;10.70;94.00
15156;DHT22;7678;50.058;8.306;2024-03-06T15:41:04;10.70;94.90
15156;DHT22;7678;50.058;8.306;2024-03-06T15:43:38;10.60;93.70
15156;DHT22;7678;50.058;8.306;2024-03-06T15:46:07;10.50;94.00
15156;DHT22;7678;50.058;8.306;2024-03-06T15:49:02;10.40;92.70
15156;DHT22;7678;50.058;8.306;2024-03-06T15:51:44;10.40;92.20
15156;DHT22;7678;50.058;8.306;2024-03-06T15:54:17;10.40;92.60
15156;DHT22;7678;50.058;8.306;2024-03-06T15:56:47;10.30;93.20
15156;DHT22;7678;50.058;8.306;2024-03-06T15:59:18;10.30;95.00
15156;DHT22;7678;50.058;8.306;2024-03-06T16:01:47;10.20;97.70
15156;DHT22;7678;50.058;8.306;2024-03-06T16:04:15;10.20;98.10
15156;DHT22;7678;50.058;8.306;2024-03-06T16:06:46;10.20;97.30
15156;DHT22;7678;50.058;8.306;2024-03-06T16:09:17;10.30;97.80
15156;DHT22;7678;50.058;8.306;2024-03-06T16:11:49;10.20;99.60
15156;DHT22;7678;50.058;8.306;2024-03-06T16:14:28;10.10;99.90
15156;DHT22;7678;50.058;8.306;2024-03-06T16:17:00;10.10;99.90
15156;DHT22;7678;50.058;8.306;2024-03-06T16:19:35;10.00;99.90
15156;DHT22;7678;50.058;8.306;2024-03-06T16:22:12;10.00;99.90
15156;DHT22;7678;50.058;8.306;2024-03-06T16:24:41;10.00;99.90
15156;DHT22;7678;50.058;8.306;2024-03-06T16:27:11;10.00;99.90